sensor_id;sensor_type;location;lat;lon;timestamp;P1;durP1;ratioP1;P2;durP2;ratioP2
32780;SDS011;19136;47.032;15.502;2023-12-22T00:02:07;1.67;;;0.75;;
32780;SDS011;19136;47.032;15.502;2023-12-22T00:04:33;2.25;;;0.70;;
32780;SDS011;19136;47.032;15.502;2023-12-22T00:06:58;1.30;;;0.70;;
32780;SDS011;19136;47.032;15.502;2023-12-22T00:09:24;3.13;;;0.55;;
32780;SDS011;19136;47.032;15.502;2023-12-22T00:11:49;1.05;;;0.70;;
32780;SDS011;19136;47.032;15.502;2023-12-22T00:14:15;3.08;;;0.85;;
32780;SDS011;19136;47.032;15.502;2023-12-22T00:16:40;5.72;;;2.75;;
32780;SDS011;19136;47.032;15.502;2023-12-22T00:19:06;8.43;;;3.20;;
32780;SDS011;19136;47.032;15.502;2023-12-22T00:21:31;8.13;;;2.45;;
32780;SDS011;19136;47.032;15.502;2023-12-22T00:23:57;8.73;;;1.63;;
32780;SDS011;19136;47.032;15.502;2023-12-22T00:26:23;6.00;;;1.95;;
32780;SDS011;19136;47.032;15.502;2023-12-22T00:28:48;4.85;;;1.60;;
32780;SDS011;19136;47.032;15.502;2023-12-22T00:31:32;4.57;;;1.85;;
32780;SDS011;19136;47.032;15.502;2023-12-22T00:33:58;2.75;;;0.80;;
32780;SDS011;19136;47.032;15.502;2023-12-22T00:36:23;2.67;;;0.85;;
32780;SDS011;19136;47.032;15.502;2023-12-22T00:38:50;1.33;;;0.90;;
32780;SDS011;19136;47.032;15.502;2023-12-22T00:41:16;3.53;;;0.98;;
32780;SDS011;19136;47.032;15.502;2023-12-22T00:43:41;2.17;;;0.80;;
32780;SDS011;19136;47.032;15.502;2023-12-22T00:46:09;5.65;;;1.50;;
32780;SDS011;19136;47.032;15.502;2023-12-22T00:48:34;1.33;;;0.40;;
32780;SDS011;19136;47.032;15.502;2023-12-22T00:51:00;1.15;;;0.60;;
32780;SDS011;19136;47.032;15.502;2023-12-22T00:53:28;0.77;;;0.50;;
32780;SDS011;19136;47.032;15.502;2023-12-22T00:55:54;3.35;;;0.57;;
32780;SDS011;19136;47.032;15.502;2023-12-22T00:58:20;0.57;;;0.50;;
32780;SDS011;19136;47.032;15.502;2023-12-22T01:00:48;0.90;;;0.43;;
32780;SDS011;19136;47.032;15.502;2023-12-22T01:03:15;0.98;;;0.50;;
32780;SDS011;19136;47.032;15.502;2023-12-22T01:05:40;2.05;;;0.50;;
32780;SDS011;19136;47.032;15.502;2023-12-22T01:08:08;1.10;;;0.50;;
32780;SDS011;19136;47.032;15.502;2023-12-22T01:10:37;0.35;;;0.30;;
32780;SDS011;19136;47.032;15.502;2023-12-22T01:13:05;1.17;;;0.65;;
32780;SDS011;19136;47.032;15.502;2023-12-22T01:15:34;0.77;;;0.30;;
32780;SDS011;19136;47.032;15.502;2023-12-22T01:18:00;1.17;;;0.50;;
32780;SDS011;19136;47.032;15.502;2023-12-22T01:20:27;1.27;;;0.40;;
32780;SDS011;19136;47.032;15.502;2023-12-22T01:22:52;1.25;;;0.55;;
32780;SDS011;19136;47.032;15.502;2023-12-22T01:25:18;2.10;;;1.02;;
32780;SDS011;19136;47.032;15.502;2023-12-22T01:27:51;1.50;;;0.70;;
32780;SDS011;19136;47.032;15.502;2023-12-22T01:30:20;1.67;;;0.40;;
32780;SDS011;19136;47.032;15.502;2023-12-22T01:32:46;0.70;;;0.40;;
32780;SDS011;19136;47.032;15.502;2023-12-22T01:35:12;1.00;;;0.55;;
32780;SDS011;19136;47.032;15.502;2023-12-22T01:37:37;0.75;;;0.50;;
32780;SDS011;19136;47.032;15.502;2023-12-22T01:40:11;1.45;;;0.60;;
32780;SDS011;19136;47.032;15.502;2023-12-22T01:42:37;3.85;;;0.60;;
32780;SDS011;19136;47.032;15.502;2023-12-22T01:45:04;1.58;;;0.40;;
32780;SDS011;19136;47.032;15.502;2023-12-22T01:47:30;0.85;;;0.50;;
32780;SDS011;19136;47.032;15.502;2023-12-22T01:49:55;1.13;;;0.60;;
32780;SDS011;19136;47.032;15.502;2023-12-22T01:52:21;2.25;;;0.70;;
32780;SDS011;19136;47.032;15.502;2023-12-22T01:54:47;1.88;;;0.88;;
32780;SDS011;19136;47.032;15.502;2023-12-22T01:57:13;0.70;;;0.40;;
32780;SDS011;19136;47.032;15.502;2023-12-22T01:59:43;1.40;;;0.57;;
32780;SDS011;19136;47.032;15.502;2023-12-22T02:02:11;1.02;;;0.40;;
32780;SDS011;19136;47.032;15.502;2023-12-22T02:04:37;3.00;;;0.28;;
32780;SDS011;19136;47.032;15.502;2023-12-22T02:07:02;0.57;;;0.30;;
32780;SDS011;19136;47.032;15.502;2023-12-22T02:09:28;0.93;;;0.30;;
32780;SDS011;19136;47.032;15.502;2023-12-22T02:11:54;0.77;;;0.40;;
32780;SDS011;19136;47.032;15.502;2023-12-22T02:14:22;0.60;;;0.30;;
32780;SDS011;19136;47.032;15.502;2023-12-22T02:16:52;2.08;;;0.35;;
32780;SDS011;19136;47.032;15.502;2023-12-22T02:22:01;1.90;;;0.35;;
32780;SDS011;19136;47.032;15.502;2023-12-22T02:24:30;0.80;;;0.30;;
32780;SDS011;19136;47.032;15.502;2023-12-22T02:26:56;0.35;;;0.20;;
32780;SDS011;19136;47.032;15.502;2023-12-22T02:29:25;0.10;;;0.10;;
32780;SDS011;19136;47.032;15.502;2023-12-22T02:31:51;1.17;;;0.10;;
32780;SDS011;19136;47.032;15.502;2023-12-22T02:34:21;0.10;;;0.10;;
32780;SDS011;19136;47.032;15.502;2023-12-22T02:36:48;0.20;;;0.10;;
32780;SDS011;19136;47.032;15.502;2023-12-22T02:39:14;1.20;;;0.10;;
32780;SDS011;19136;47.032;15.502;2023-12-22T02:41:39;1.13;;;0.20;;
32780;SDS011;19136;47.032;15.502;2023-12-22T02:44:05;0.45;;;0.20;;
32780;SDS011;19136;47.032;15.502;2023-12-22T02:46:32;1.38;;;0.10;;
32780;SDS011;19136;47.032;15.502;2023-12-22T02:48:57;0.10;;;0.10;;
32780;SDS011;19136;47.032;15.502;2023-12-22T02:51:22;0.10;;;0.10;;
32780;SDS011;19136;47.032;15.502;2023-12-22T02:53:48;0.10;;;0.10;;
32780;SDS011;19136;47.032;15.502;2023-12-22T02:56:13;0.13;;;0.13;;
32780;SDS011;19136;47.032;15.502;2023-12-22T02:58:42;1.30;;;0.10;;
32780;SDS011;19136;47.032;15.502;2023-12-22T03:01:09;0.10;;;0.10;;
32780;SDS011;19136;47.032;15.502;2023-12-22T03:03:35;0.10;;;0.10;;
32780;SDS011;19136;47.032;15.502;2023-12-22T03:06:01;0.43;;;0.30;;
32780;SDS011;19136;47.032;15.502;2023-12-22T03:08:26;0.35;;;0.20;;
32780;SDS011;19136;47.032;15.502;2023-12-22T03:10:52;0.20;;;0.13;;
32780;SDS011;19136;47.032;15.502;2023-12-22T03:13:18;0.20;;;0.20;;
32780;SDS011;19136;47.032;15.502;2023-12-22T03:15:44;0.20;;;0.20;;
32780;SDS011;19136;47.032;15.502;2023-12-22T03:18:09;0.10;;;0.10;;
32780;SDS011;19136;47.032;15.502;2023-12-22T03:20:35;0.10;;;0.10;;
32780;SDS011;19136;47.032;15.502;2023-12-22T03:23:00;0.47;;;0.20;;
32780;SDS011;19136;47.032;15.502;2023-12-22T03:25:26;0.30;;;0.20;;
32780;SDS011;19136;47.032;15.502;2023-12-22T03:27:51;1.70;;;0.10;;
32780;SDS011;19136;47.032;15.502;2023-12-22T03:30:17;0.28;;;0.20;;
32780;SDS011;19136;47.032;15.502;2023-12-22T03:32:46;0.10;;;0.10;;
32780;SDS011;19136;47.032;15.502;2023-12-22T03:35:12;0.40;;;0.30;;
32780;SDS011;19136;47.032;15.502;2023-12-22T03:37:37;1.52;;;0.73;;
32780;SDS011;19136;47.032;15.502;2023-12-22T03:40:03;1.60;;;0.30;;
32780;SDS011;19136;47.032;15.502;2023-12-22T03:42:29;0.85;;;0.40;;
32780;SDS011;19136;47.032;15.502;2023-12-22T03:44:54;2.03;;;0.30;;
32780;SDS011;19136;47.032;15.502;2023-12-22T03:47:20;0.20;;;0.20;;
32780;SDS011;19136;47.032;15.502;2023-12-22T03:49:48;1.17;;;1.08;;
32780;SDS011;19136;47.032;15.502;2023-12-22T03:52:14;2.33;;;0.22;;
32780;SDS011;19136;47.032;15.502;2023-12-22T03:54:40;0.20;;;0.20;;
32780;SDS011;19136;47.032;15.502;2023-12-22T03:57:05;0.47;;;0.17;;
32780;SDS011;19136;47.032;15.502;2023-12-22T03:59:32;2.20;;;0.60;;
32780;SDS011;19136;47.032;15.502;2023-12-22T04:01:58;1.73;;;0.60;;
32780;SDS011;19136;47.032;15.502;2023-12-22T04:04:26;2.25;;;0.38;;
32780;SDS011;19136;47.032;15.502;2023-12-22T04:06:53;3.00;;;0.60;;
32780;SDS011;19136;47.032;15.502;2023-12-22T04:09:19;1.80;;;0.57;;
32780;SDS011;19136;47.032;15.502;2023-12-22T04:11:45;1.48;;;0.60;;
32780;SDS011;19136;47.032;15.502;2023-12-22T04:14:12;0.65;;;0.40;;
32780;SDS011;19136;47.032;15.502;2023-12-22T04:16:41;0.95;;;0.50;;
32780;SDS011;19136;47.032;15.502;2023-12-22T04:19:06;2.38;;;0.63;;
32780;SDS011;19136;47.032;15.502;2023-12-22T04:21:32;2.38;;;0.32;;
32780;SDS011;19136;47.032;15.502;2023-12-22T04:23:58;1.67;;;0.57;;
32780;SDS011;19136;47.032;15.502;2023-12-22T04:26:23;1.20;;;0.47;;
32780;SDS011;19136;47.032;15.502;2023-12-22T04:28:49;0.45;;;0.20;;
32780;SDS011;19136;47.032;15.502;2023-12-22T04:31:14;0.30;;;0.20;;
32780;SDS011;19136;47.032;15.502;2023-12-22T04:33:40;0.47;;;0.30;;
32780;SDS011;19136;47.032;15.502;2023-12-22T04:36:05;1.02;;;0.43;;
32780;SDS011;19136;47.032;15.502;2023-12-22T04:38:31;0.47;;;0.32;;
32780;SDS011;19136;47.032;15.502;2023-12-22T04:40:57;0.60;;;0.30;;
32780;SDS011;19136;47.032;15.502;2023-12-22T04:43:23;1.05;;;0.20;;
32780;SDS011;19136;47.032;15.502;2023-12-22T04:45:49;0.40;;;0.30;;
32780;SDS011;19136;47.032;15.502;2023-12-22T04:48:14;0.32;;;0.20;;
32780;SDS011;19136;47.032;15.502;2023-12-22T04:50:40;1.38;;;0.30;;
32780;SDS011;19136;47.032;15.502;2023-12-22T04:53:06;1.85;;;0.30;;
32780;SDS011;19136;47.032;15.502;2023-12-22T04:55:32;0.13;;;0.10;;
32780;SDS011;19136;47.032;15.502;2023-12-22T04:57:58;1.80;;;0.10;;
32780;SDS011;19136;47.032;15.502;2023-12-22T05:00:25;1.25;;;0.30;;
32780;SDS011;19136;47.032;15.502;2023-12-22T05:02:53;0.30;;;0.20;;
32780;SDS011;19136;47.032;15.502;2023-12-22T05:05:18;0.20;;;0.17;;
32780;SDS011;19136;47.032;15.502;2023-12-22T05:07:44;0.32;;;0.10;;
32780;SDS011;19136;47.032;15.502;2023-12-22T05:10:10;3.20;;;1.35;;
32780;SDS011;19136;47.032;15.502;2023-12-22T05:12:40;1.95;;;0.70;;
32780;SDS011;19136;47.032;15.502;2023-12-22T05:15:05;0.88;;;0.35;;
32780;SDS011;19136;47.032;15.502;2023-12-22T05:17:31;4.35;;;0.30;;
32780;SDS011;19136;47.032;15.502;2023-12-22T05:19:58;1.13;;;0.32;;
32780;SDS011;19136;47.032;15.502;2023-12-22T05:22:23;1.30;;;0.70;;
32780;SDS011;19136;47.032;15.502;2023-12-22T05:24:52;3.85;;;0.80;;
32780;SDS011;19136;47.032;15.502;2023-12-22T05:27:18;1.52;;;0.50;;
32780;SDS011;19136;47.032;15.502;2023-12-22T05:29:44;2.10;;;0.57;;
32780;SDS011;19136;47.032;15.502;2023-12-22T05:32:10;0.30;;;0.22;;
32780;SDS011;19136;47.032;15.502;2023-12-22T05:34:36;6.90;;;0.35;;
32780;SDS011;19136;47.032;15.502;2023-12-22T05:37:04;0.40;;;0.30;;
32780;SDS011;19136;47.032;15.502;2023-12-22T05:39:30;0.85;;;0.20;;
32780;SDS011;19136;47.032;15.502;2023-12-22T05:41:57;0.47;;;0.28;;
32780;SDS011;19136;47.032;15.502;2023-12-22T05:44:23;0.40;;;0.38;;
32780;SDS011;19136;47.032;15.502;2023-12-22T05:46:49;0.65;;;0.20;;
32780;SDS011;19136;47.032;15.502;2023-12-22T05:49:16;1.00;;;0.32;;
32780;SDS011;19136;47.032;15.502;2023-12-22T05:51:41;0.35;;;0.25;;
32780;SDS011;19136;47.032;15.502;2023-12-22T05:54:08;0.28;;;0.20;;
32780;SDS011;19136;47.032;15.502;2023-12-22T05:56:34;1.15;;;0.40;;
32780;SDS011;19136;47.032;15.502;2023-12-22T05:58:59;1.10;;;0.40;;
32780;SDS011;19136;47.032;15.502;2023-12-22T06:01:25;1.10;;;0.60;;
32780;SDS011;19136;47.032;15.502;2023-12-22T06:03:50;3.20;;;1.65;;
32780;SDS011;19136;47.032;15.502;2023-12-22T06:06:16;2.50;;;0.98;;
32780;SDS011;19136;47.032;15.502;2023-12-22T06:08:45;2.72;;;1.75;;
32780;SDS011;19136;47.032;15.502;2023-12-22T06:11:10;2.70;;;1.60;;
32780;SDS011;19136;47.032;15.502;2023-12-22T06:13:36;7.03;;;3.92;;
32780;SDS011;19136;47.032;15.502;2023-12-22T06:16:02;4.65;;;2.40;;
32780;SDS011;19136;47.032;15.502;2023-12-22T06:18:34;3.23;;;2.00;;
32780;SDS011;19136;47.032;15.502;2023-12-22T06:21:00;4.38;;;1.92;;
32780;SDS011;19136;47.032;15.502;2023-12-22T06:23:25;1.70;;;1.10;;
32780;SDS011;19136;47.032;15.502;2023-12-22T06:25:51;1.70;;;0.80;;
32780;SDS011;19136;47.032;15.502;2023-12-22T06:28:17;5.18;;;0.70;;
32780;SDS011;19136;47.032;15.502;2023-12-22T06:30:43;1.30;;;0.85;;
32780;SDS011;19136;47.032;15.502;2023-12-22T06:33:09;1.10;;;0.75;;
32780;SDS011;19136;47.032;15.502;2023-12-22T06:35:37;1.25;;;0.57;;
32780;SDS011;19136;47.032;15.502;2023-12-22T06:38:03;0.90;;;0.50;;
32780;SDS011;19136;47.032;15.502;2023-12-22T06:40:30;1.58;;;0.47;;
32780;SDS011;19136;47.032;15.502;2023-12-22T06:42:58;0.77;;;0.43;;
32780;SDS011;19136;47.032;15.502;2023-12-22T06:45:24;1.23;;;0.63;;
32780;SDS011;19136;47.032;15.502;2023-12-22T06:47:50;1.70;;;0.80;;
32780;SDS011;19136;47.032;15.502;2023-12-22T06:50:16;6.68;;;1.90;;
32780;SDS011;19136;47.032;15.502;2023-12-22T06:52:42;7.35;;;3.08;;
32780;SDS011;19136;47.032;15.502;2023-12-22T06:55:08;6.35;;;2.80;;
32780;SDS011;19136;47.032;15.502;2023-12-22T06:57:33;3.65;;;2.15;;
32780;SDS011;19136;47.032;15.502;2023-12-22T07:00:03;4.55;;;2.10;;
32780;SDS011;19136;47.032;15.502;2023-12-22T07:02:29;5.53;;;2.88;;
32780;SDS011;19136;47.032;15.502;2023-12-22T07:05:00;3.22;;;1.70;;
32780;SDS011;19136;47.032;15.502;2023-12-22T07:07:32;3.50;;;1.50;;
32780;SDS011;19136;47.032;15.502;2023-12-22T07:09:58;1.48;;;0.95;;
32780;SDS011;19136;47.032;15.502;2023-12-22T07:12:24;1.67;;;0.70;;
32780;SDS011;19136;47.032;15.502;2023-12-22T07:14:49;2.03;;;1.40;;
32780;SDS011;19136;47.032;15.502;2023-12-22T07:17:15;0.95;;;0.40;;
32780;SDS011;19136;47.032;15.502;2023-12-22T07:19:41;1.88;;;0.60;;
32780;SDS011;19136;47.032;15.502;2023-12-22T07:22:06;0.98;;;0.60;;
32780;SDS011;19136;47.032;15.502;2023-12-22T07:24:33;0.75;;;0.50;;
32780;SDS011;19136;47.032;15.502;2023-12-22T07:26:59;3.08;;;0.60;;
32780;SDS011;19136;47.032;15.502;2023-12-22T07:29:24;2.97;;;0.70;;
32780;SDS011;19136;47.032;15.502;2023-12-22T07:31:50;2.35;;;0.75;;
32780;SDS011;19136;47.032;15.502;2023-12-22T07:34:19;0.70;;;0.50;;
32780;SDS011;19136;47.032;15.502;2023-12-22T07:36:47;1.05;;;0.63;;
32780;SDS011;19136;47.032;15.502;2023-12-22T07:39:13;0.85;;;0.55;;
32780;SDS011;19136;47.032;15.502;2023-12-22T07:41:40;1.60;;;0.80;;
32780;SDS011;19136;47.032;15.502;2023-12-22T07:44:06;1.05;;;0.65;;
32780;SDS011;19136;47.032;15.502;2023-12-22T07:46:31;1.02;;;0.60;;
32780;SDS011;19136;47.032;15.502;2023-12-22T07:48:57;0.93;;;0.60;;
32780;SDS011;19136;47.032;15.502;2023-12-22T07:51:23;2.08;;;0.80;;
32780;SDS011;19136;47.032;15.502;2023-12-22T07:53:51;3.92;;;0.90;;
32780;SDS011;19136;47.032;15.502;2023-12-22T07:56:20;1.20;;;0.70;;
32780;SDS011;19136;47.032;15.502;2023-12-22T07:58:46;2.25;;;0.80;;
32780;SDS011;19136;47.032;15.502;2023-12-22T08:01:12;0.82;;;0.50;;
32780;SDS011;19136;47.032;15.502;2023-12-22T08:03:40;1.23;;;0.60;;
32780;SDS011;19136;47.032;15.502;2023-12-22T08:06:06;1.58;;;0.90;;
32780;SDS011;19136;47.032;15.502;2023-12-22T08:08:32;2.33;;;0.82;;
32780;SDS011;19136;47.032;15.502;2023-12-22T08:10:58;5.30;;;1.27;;
32780;SDS011;19136;47.032;15.502;2023-12-22T08:13:24;8.57;;;2.90;;
32780;SDS011;19136;47.032;15.502;2023-12-22T08:15:50;9.60;;;2.35;;
32780;SDS011;19136;47.032;15.502;2023-12-22T08:18:16;7.65;;;2.30;;
32780;SDS011;19136;47.032;15.502;2023-12-22T08:20:41;7.25;;;2.35;;
32780;SDS011;19136;47.032;15.502;2023-12-22T08:23:08;6.05;;;2.05;;
32780;SDS011;19136;47.032;15.502;2023-12-22T08:25:40;3.28;;;1.45;;
32780;SDS011;19136;47.032;15.502;2023-12-22T08:28:07;2.72;;;1.23;;
32780;SDS011;19136;47.032;15.502;2023-12-22T08:30:34;3.45;;;1.50;;
32780;SDS011;19136;47.032;15.502;2023-12-22T08:33:24;5.10;;;1.77;;
32780;SDS011;19136;47.032;15.502;2023-12-22T08:36:00;4.85;;;1.77;;
32780;SDS011;19136;47.032;15.502;2023-12-22T08:38:26;4.22;;;1.80;;
32780;SDS011;19136;47.032;15.502;2023-12-22T08:40:53;3.40;;;1.83;;
32780;SDS011;19136;47.032;15.502;2023-12-22T08:43:19;4.18;;;1.88;;
32780;SDS011;19136;47.032;15.502;2023-12-22T08:45:54;6.10;;;3.00;;
32780;SDS011;19136;47.032;15.502;2023-12-22T08:48:23;5.28;;;2.05;;
32780;SDS011;19136;47.032;15.502;2023-12-22T08:50:48;5.13;;;2.40;;
32780;SDS011;19136;47.032;15.502;2023-12-22T08:53:15;3.78;;;2.00;;
32780;SDS011;19136;47.032;15.502;2023-12-22T08:55:41;4.45;;;2.50;;
32780;SDS011;19136;47.032;15.502;2023-12-22T08:58:09;5.60;;;2.35;;
32780;SDS011;19136;47.032;15.502;2023-12-22T09:00:43;9.85;;;3.13;;
32780;SDS011;19136;47.032;15.502;2023-12-22T09:03:09;9.85;;;2.97;;
32780;SDS011;19136;47.032;15.502;2023-12-22T09:05:35;8.88;;;2.90;;
32780;SDS011;19136;47.032;15.502;2023-12-22T09:08:01;7.30;;;2.60;;
32780;SDS011;19136;47.032;15.502;2023-12-22T09:10:26;6.65;;;1.83;;
32780;SDS011;19136;47.032;15.502;2023-12-22T09:12:52;21.13;;;4.72;;
32780;SDS011;19136;47.032;15.502;2023-12-22T09:15:17;9.18;;;3.20;;
32780;SDS011;19136;47.032;15.502;2023-12-22T09:17:46;21.30;;;3.10;;
32780;SDS011;19136;47.032;15.502;2023-12-22T09:20:17;8.80;;;2.85;;
32780;SDS011;19136;47.032;15.502;2023-12-22T09:22:43;6.50;;;2.78;;
32780;SDS011;19136;47.032;15.502;2023-12-22T09:25:08;11.27;;;4.15;;
32780;SDS011;19136;47.032;15.502;2023-12-22T09:27:34;14.30;;;3.85;;
32780;SDS011;19136;47.032;15.502;2023-12-22T09:30:01;4.47;;;1.60;;
32780;SDS011;19136;47.032;15.502;2023-12-22T09:32:26;3.42;;;1.10;;
32780;SDS011;19136;47.032;15.502;2023-12-22T09:34:52;5.57;;;1.30;;
32780;SDS011;19136;47.032;15.502;2023-12-22T09:37:21;1.88;;;0.90;;
32780;SDS011;19136;47.032;15.502;2023-12-22T09:39:46;4.43;;;1.42;;
32780;SDS011;19136;47.032;15.502;2023-12-22T09:42:12;9.98;;;2.00;;
32780;SDS011;19136;47.032;15.502;2023-12-22T09:44:38;6.80;;;2.25;;
32780;SDS011;19136;47.032;15.502;2023-12-22T09:47:04;4.03;;;1.60;;
32780;SDS011;19136;47.032;15.502;2023-12-22T09:49:34;10.15;;;2.28;;
32780;SDS011;19136;47.032;15.502;2023-12-22T09:52:00;6.43;;;2.45;;
32780;SDS011;19136;47.032;15.502;2023-12-22T09:54:30;8.13;;;3.03;;
32780;SDS011;19136;47.032;15.502;2023-12-22T09:56:55;9.20;;;3.28;;
32780;SDS011;19136;47.032;15.502;2023-12-22T09:59:22;13.25;;;5.72;;
32780;SDS011;19136;47.032;15.502;2023-12-22T10:01:49;3.40;;;2.00;;
32780;SDS011;19136;47.032;15.502;2023-12-22T10:04:19;6.70;;;1.85;;
32780;SDS011;19136;47.032;15.502;2023-12-22T10:06:48;4.63;;;2.00;;
32780;SDS011;19136;47.032;15.502;2023-12-22T10:10:33;5.60;;;2.00;;
32780;SDS011;19136;47.032;15.502;2023-12-22T10:12:59;5.55;;;1.95;;
32780;SDS011;19136;47.032;15.502;2023-12-22T10:15:34;6.18;;;2.67;;
32780;SDS011;19136;47.032;15.502;2023-12-22T10:18:00;4.97;;;1.90;;
32780;SDS011;19136;47.032;15.502;2023-12-22T10:20:26;3.85;;;1.80;;
32780;SDS011;19136;47.032;15.502;2023-12-22T10:22:52;3.80;;;1.83;;
32780;SDS011;19136;47.032;15.502;2023-12-22T10:25:27;5.50;;;2.00;;
32780;SDS011;19136;47.032;15.502;2023-12-22T10:27:56;6.95;;;3.08;;
32780;SDS011;19136;47.032;15.502;2023-12-22T10:30:25;7.15;;;2.90;;
32780;SDS011;19136;47.032;15.502;2023-12-22T10:32:51;4.25;;;1.77;;
32780;SDS011;19136;47.032;15.502;2023-12-22T10:35:20;2.65;;;1.25;;
32780;SDS011;19136;47.032;15.502;2023-12-22T10:37:49;2.80;;;1.35;;
32780;SDS011;19136;47.032;15.502;2023-12-22T10:40:21;9.77;;;1.80;;
32780;SDS011;19136;47.032;15.502;2023-12-22T10:42:48;3.80;;;1.98;;
32780;SDS011;19136;47.032;15.502;2023-12-22T10:45:20;9.82;;;2.28;;
32780;SDS011;19136;47.032;15.502;2023-12-22T10:47:47;1.92;;;0.77;;
32780;SDS011;19136;47.032;15.502;2023-12-22T10:50:16;8.27;;;1.30;;
32780;SDS011;19136;47.032;15.502;2023-12-22T10:52:50;3.78;;;1.33;;
32780;SDS011;19136;47.032;15.502;2023-12-22T10:55:19;13.38;;;3.00;;
32780;SDS011;19136;47.032;15.502;2023-12-22T10:57:48;11.90;;;2.85;;
32780;SDS011;19136;47.032;15.502;2023-12-22T11:00:19;8.48;;;1.45;;
32780;SDS011;19136;47.032;15.502;2023-12-22T11:02:47;5.07;;;1.20;;
32780;SDS011;19136;47.032;15.502;2023-12-22T11:05:13;7.57;;;1.60;;
32780;SDS011;19136;47.032;15.502;2023-12-22T11:07:45;8.32;;;1.75;;
32780;SDS011;19136;47.032;15.502;2023-12-22T11:10:12;9.40;;;1.42;;
32780;SDS011;19136;47.032;15.502;2023-12-22T11:12:40;16.67;;;2.10;;
32780;SDS011;19136;47.032;15.502;2023-12-22T11:15:09;28.00;;;4.15;;
32780;SDS011;19136;47.032;15.502;2023-12-22T11:17:38;31.98;;;4.85;;
32780;SDS011;19136;47.032;15.502;2023-12-22T11:20:10;17.52;;;6.85;;
32780;SDS011;19136;47.032;15.502;2023-12-22T11:25:06;26.30;;;7.90;;
32780;SDS011;19136;47.032;15.502;2023-12-22T11:27:33;23.67;;;5.72;;
32780;SDS011;19136;47.032;15.502;2023-12-22T11:30:00;13.50;;;3.92;;
32780;SDS011;19136;47.032;15.502;2023-12-22T11:32:26;17.02;;;2.58;;
32780;SDS011;19136;47.032;15.502;2023-12-22T11:35:03;18.38;;;4.32;;
32780;SDS011;19136;47.032;15.502;2023-12-22T11:37:29;16.33;;;4.32;;
32780;SDS011;19136;47.032;15.502;2023-12-22T11:39:56;12.15;;;3.75;;
32780;SDS011;19136;47.032;15.502;2023-12-22T11:42:28;8.80;;;4.10;;
32780;SDS011;19136;47.032;15.502;2023-12-22T11:44:57;6.43;;;3.70;;
32780;SDS011;19136;47.032;15.502;2023-12-22T11:47:23;10.73;;;3.75;;
32780;SDS011;19136;47.032;15.502;2023-12-22T11:49:52;10.73;;;4.25;;
32780;SDS011;19136;47.032;15.502;2023-12-22T11:52:25;15.07;;;4.25;;
32780;SDS011;19136;47.032;15.502;2023-12-22T11:54:52;9.88;;;4.30;;
32780;SDS011;19136;47.032;15.502;2023-12-22T11:57:33;9.82;;;4.20;;
32780;SDS011;19136;47.032;15.502;2023-12-22T12:02:39;8.25;;;2.70;;
32780;SDS011;19136;47.032;15.502;2023-12-22T12:05:09;11.10;;;3.55;;
32780;SDS011;19136;47.032;15.502;2023-12-22T12:10:12;10.93;;;3.65;;
32780;SDS011;19136;47.032;15.502;2023-12-22T12:12:38;6.30;;;3.42;;
32780;SDS011;19136;47.032;15.502;2023-12-22T12:15:17;4.97;;;2.10;;
32780;SDS011;19136;47.032;15.502;2023-12-22T12:17:44;5.53;;;1.83;;
32780;SDS011;19136;47.032;15.502;2023-12-22T12:20:25;2.60;;;1.10;;
32780;SDS011;19136;47.032;15.502;2023-12-22T12:23:01;2.42;;;1.35;;
32780;SDS011;19136;47.032;15.502;2023-12-22T12:25:33;4.57;;;0.93;;
32780;SDS011;19136;47.032;15.502;2023-12-22T12:28:06;3.33;;;0.70;;
32780;SDS011;19136;47.032;15.502;2023-12-22T12:30:32;2.63;;;0.85;;
32780;SDS011;19136;47.032;15.502;2023-12-22T12:32:58;1.63;;;0.80;;
32780;SDS011;19136;47.032;15.502;2023-12-22T12:35:36;2.40;;;1.00;;
32780;SDS011;19136;47.032;15.502;2023-12-22T12:38:07;2.60;;;0.95;;
32780;SDS011;19136;47.032;15.502;2023-12-22T12:40:33;2.20;;;1.20;;
32780;SDS011;19136;47.032;15.502;2023-12-22T12:43:13;2.58;;;1.40;;
32780;SDS011;19136;47.032;15.502;2023-12-22T12:45:43;4.80;;;1.65;;
32780;SDS011;19136;47.032;15.502;2023-12-22T12:48:16;4.05;;;1.52;;
32780;SDS011;19136;47.032;15.502;2023-12-22T12:50:46;525.13;;;115.70;;
32780;SDS011;19136;47.032;15.502;2023-12-22T12:53:12;282.42;;;110.15;;
32780;SDS011;19136;47.032;15.502;2023-12-22T12:55:39;114.07;;;42.58;;
32780;SDS011;19136;47.032;15.502;2023-12-22T12:58:19;95.88;;;38.28;;
32780;SDS011;19136;47.032;15.502;2023-12-22T13:00:45;44.38;;;15.55;;
32780;SDS011;19136;47.032;15.502;2023-12-22T13:03:21;77.53;;;34.83;;
32780;SDS011;19136;47.032;15.502;2023-12-22T13:05:52;50.15;;;30.25;;
32780;SDS011;19136;47.032;15.502;2023-12-22T13:08:17;27.33;;;15.85;;
32780;SDS011;19136;47.032;15.502;2023-12-22T13:10:46;38.70;;;20.80;;
32780;SDS011;19136;47.032;15.502;2023-12-22T13:13:12;37.65;;;20.15;;
32780;SDS011;19136;47.032;15.502;2023-12-22T13:15:41;35.38;;;22.20;;
32780;SDS011;19136;47.032;15.502;2023-12-22T13:18:10;49.17;;;22.75;;
32780;SDS011;19136;47.032;15.502;2023-12-22T13:20:36;42.92;;;22.02;;
32780;SDS011;19136;47.032;15.502;2023-12-22T13:23:02;62.72;;;31.75;;
32780;SDS011;19136;47.032;15.502;2023-12-22T13:25:37;61.70;;;36.92;;
32780;SDS011;19136;47.032;15.502;2023-12-22T13:28:02;45.42;;;19.55;;
32780;SDS011;19136;47.032;15.502;2023-12-22T13:30:32;36.83;;;18.23;;
32780;SDS011;19136;47.032;15.502;2023-12-22T13:32:58;23.63;;;7.22;;
32780;SDS011;19136;47.032;15.502;2023-12-22T13:35:24;24.08;;;5.80;;
32780;SDS011;19136;47.032;15.502;2023-12-22T13:37:51;23.02;;;6.18;;
32780;SDS011;19136;47.032;15.502;2023-12-22T13:40:17;15.50;;;5.82;;
32780;SDS011;19136;47.032;15.502;2023-12-22T13:42:43;12.90;;;4.47;;
32780;SDS011;19136;47.032;15.502;2023-12-22T13:45:11;18.45;;;4.30;;
32780;SDS011;19136;47.032;15.502;2023-12-22T13:47:46;17.38;;;2.70;;
32780;SDS011;19136;47.032;15.502;2023-12-22T13:50:15;17.35;;;3.30;;
32780;SDS011;19136;47.032;15.502;2023-12-22T13:52:41;19.35;;;3.13;;
32780;SDS011;19136;47.032;15.502;2023-12-22T13:55:15;14.75;;;2.67;;
32780;SDS011;19136;47.032;15.502;2023-12-22T13:57:46;13.25;;;4.47;;
32780;SDS011;19136;47.032;15.502;2023-12-22T14:02:46;16.02;;;3.20;;
32780;SDS011;19136;47.032;15.502;2023-12-22T14:05:12;15.35;;;3.38;;
32780;SDS011;19136;47.032;15.502;2023-12-22T14:07:37;17.25;;;3.45;;
32780;SDS011;19136;47.032;15.502;2023-12-22T14:10:06;11.50;;;4.57;;
32780;SDS011;19136;47.032;15.502;2023-12-22T14:12:32;15.13;;;3.33;;
32780;SDS011;19136;47.032;15.502;2023-12-22T14:14:57;8.45;;;3.03;;
32780;SDS011;19136;47.032;15.502;2023-12-22T14:17:26;13.48;;;4.30;;
32780;SDS011;19136;47.032;15.502;2023-12-22T14:19:52;21.60;;;4.95;;
32780;SDS011;19136;47.032;15.502;2023-12-22T14:22:25;21.85;;;5.30;;
32780;SDS011;19136;47.032;15.502;2023-12-22T14:25:02;19.42;;;5.78;;
32780;SDS011;19136;47.032;15.502;2023-12-22T14:27:36;18.48;;;3.78;;
32780;SDS011;19136;47.032;15.502;2023-12-22T14:30:05;14.38;;;5.20;;
32780;SDS011;19136;47.032;15.502;2023-12-22T14:32:30;11.88;;;3.22;;
32780;SDS011;19136;47.032;15.502;2023-12-22T14:34:59;52.45;;;14.98;;
32780;SDS011;19136;47.032;15.502;2023-12-22T14:37:26;440.17;;;107.07;;
32780;SDS011;19136;47.032;15.502;2023-12-22T14:40:01;437.27;;;108.18;;
32780;SDS011;19136;47.032;15.502;2023-12-22T14:42:27;442.33;;;110.80;;
32780;SDS011;19136;47.032;15.502;2023-12-22T14:44:53;67.65;;;15.60;;
32780;SDS011;19136;47.032;15.502;2023-12-22T14:47:26;197.25;;;47.28;;